sensor_id;sensor_type;location;lat;lon;timestamp;temperature;humidity
49413;DHT22;35493;50.276;9.372;2023-06-14T00:02:19;18.20;54.80
49413;DHT22;35493;50.276;9.372;2023-06-14T00:04:46;18.10;55.10
49413;DHT22;35493;50.276;9.372;2023-06-14T00:07:15;18.10;55.10
49413;DHT22;35493;50.276;9.372;2023-06-14T00:09:42;18.10;55.10
49413;DHT22;35493;50.276;9.372;2023-06-14T00:12:09;18.10;55.20
49413;DHT22;35493;50.276;9.372;2023-06-14T00:14:36;18.10;55.30
49413;DHT22;35493;50.276;9.372;2023-06-14T00:17:03;18.00;55.40
49413;DHT22;35493;50.276;9.372;2023-06-14T00:19:30;18.00;55.60
49413;DHT22;35493;50.276;9.372;2023-06-14T00:21:58;17.90;55.80
49413;DHT22;35493;50.276;9.372;2023-06-14T00:24:26;17.80;55.90
49413;DHT22;35493;50.276;9.372;2023-06-14T00:26:53;17.90;56.10
49413;DHT22;35493;50.276;9.372;2023-06-14T00:29:20;17.90;56.00
49413;DHT22;35493;50.276;9.372;2023-06-14T00:31:47;17.80;56.00
49413;DHT22;35493;50.276;9.372;2023-06-14T00:34:14;17.90;56.00
49413;DHT22;35493;50.276;9.372;2023-06-14T00:36:41;17.90;56.10
49413;DHT22;35493;50.276;9.372;2023-06-14T00:39:08;17.80;55.90
49413;DHT22;35493;50.276;9.372;2023-06-14T00:41:36;17.80;55.80
49413;DHT22;35493;50.276;9.372;2023-06-14T00:44:05;17.70;55.70
49413;DHT22;35493;50.276;9.372;2023-06-14T00:46:32;17.70;55.90
49413;DHT22;35493;50.276;9.372;2023-06-14T00:49:01;17.60;56.30
49413;DHT22;35493;50.276;9.372;2023-06-14T00:51:28;17.60;56.20
49413;DHT22;35493;50.276;9.372;2023-06-14T00:53:55;17.60;56.20
49413;DHT22;35493;50.276;9.372;2023-06-14T00:56:22;17.60;56.40
49413;DHT22;35493;50.276;9.372;2023-06-14T00:58:51;17.60;56.40
49413;DHT22;35493;50.276;9.372;2023-06-14T01:01:18;17.60;56.60
49413;DHT22;35493;50.276;9.372;2023-06-14T01:03:46;17.50;56.90
49413;DHT22;35493;50.276;9.372;2023-06-14T01:06:20;17.40;57.00
49413;DHT22;35493;50.276;9.372;2023-06-14T01:09:01;17.40;56.80
49413;DHT22;35493;50.276;9.372;2023-06-14T01:11:35;17.40;56.60
49413;DHT22;35493;50.276;9.372;2023-06-14T01:14:04;17.40;56.90
49413;DHT22;35493;50.276;9.372;2023-06-14T01:16:33;17.30;56.90
49413;DHT22;35493;50.276;9.372;2023-06-14T01:19:02;17.20;57.10
49413;DHT22;35493;50.276;9.372;2023-06-14T01:21:29;17.20;57.10
49413;DHT22;35493;50.276;9.372;2023-06-14T01:23:57;17.20;57.20
49413;DHT22;35493;50.276;9.372;2023-06-14T01:26:25;17.20;57.40
49413;DHT22;35493;50.276;9.372;2023-06-14T01:28:55;17.10;57.50
49413;DHT22;35493;50.276;9.372;2023-06-14T01:31:24;17.10;57.40
49413;DHT22;35493;50.276;9.372;2023-06-14T01:33:53;17.10;57.50
49413;DHT22;35493;50.276;9.372;2023-06-14T01:36:22;17.10;57.80
49413;DHT22;35493;50.276;9.372;2023-06-14T01:38:59;17.10;57.90
49413;DHT22;35493;50.276;9.372;2023-06-14T01:41:26;17.00;58.20
49413;DHT22;35493;50.276;9.372;2023-06-14T01:43:54;17.00;58.20
49413;DHT22;35493;50.276;9.372;2023-06-14T01:46:23;17.00;58.10
49413;DHT22;35493;50.276;9.372;2023-06-14T01:48:50;17.00;58.00
49413;DHT22;35493;50.276;9.372;2023-06-14T01:51:17;16.90;57.90
49413;DHT22;35493;50.276;9.372;2023-06-14T01:53:44;16.80;58.00
49413;DHT22;35493;50.276;9.372;2023-06-14T01:56:13;16.80;58.20
49413;DHT22;35493;50.276;9.372;2023-06-14T01:58:40;16.70;58.40
49413;DHT22;35493;50.276;9.372;2023-06-14T02:01:07;16.60;58.70
49413;DHT22;35493;50.276;9.372;2023-06-14T02:03:34;16.60;58.80
49413;DHT22;35493;50.276;9.372;2023-06-14T02:06:03;16.60;58.90
49413;DHT22;35493;50.276;9.372;2023-06-14T02:08:30;16.60;59.20
49413;DHT22;35493;50.276;9.372;2023-06-14T02:11:00;16.60;59.10
49413;DHT22;35493;50.276;9.372;2023-06-14T02:13:28;16.60;59.20
49413;DHT22;35493;50.276;9.372;2023-06-14T02:15:55;16.60;59.20
49413;DHT22;35493;50.276;9.372;2023-06-14T02:18:23;16.50;59.10
49413;DHT22;35493;50.276;9.372;2023-06-14T02:20:50;16.50;59.00
49413;DHT22;35493;50.276;9.372;2023-06-14T02:23:17;16.50;58.80
49413;DHT22;35493;50.276;9.372;2023-06-14T02:25:43;16.60;58.60
49413;DHT22;35493;50.276;9.372;2023-06-14T02:28:11;16.50;58.50
49413;DHT22;35493;50.276;9.372;2023-06-14T02:30:40;16.40;58.80
49413;DHT22;35493;50.276;9.372;2023-06-14T02:33:07;16.40;59.10
49413;DHT22;35493;50.276;9.372;2023-06-14T02:35:39;16.30;59.50
49413;DHT22;35493;50.276;9.372;2023-06-14T02:38:06;16.30;59.70
49413;DHT22;35493;50.276;9.372;2023-06-14T02:40:33;16.20;59.90
49413;DHT22;35493;50.276;9.372;2023-06-14T02:43:00;16.20;60.00
49413;DHT22;35493;50.276;9.372;2023-06-14T02:45:27;16.20;60.10
49413;DHT22;35493;50.276;9.372;2023-06-14T02:47:55;16.10;60.20
49413;DHT22;35493;50.276;9.372;2023-06-14T02:50:22;16.20;60.20
49413;DHT22;35493;50.276;9.372;2023-06-14T02:52:49;16.10;60.30
49413;DHT22;35493;50.276;9.372;2023-06-14T02:55:18;16.10;60.30
49413;DHT22;35493;50.276;9.372;2023-06-14T02:57:45;16.10;60.30
49413;DHT22;35493;50.276;9.372;2023-06-14T03:00:14;16.10;60.40
49413;DHT22;35493;50.276;9.372;2023-06-14T03:02:42;16.10;60.50
49413;DHT22;35493;50.276;9.372;2023-06-14T03:05:11;16.00;60.40
49413;DHT22;35493;50.276;9.372;2023-06-14T03:07:38;15.90;60.40
49413;DHT22;35493;50.276;9.372;2023-06-14T03:10:07;15.90;60.70
49413;DHT22;35493;50.276;9.372;2023-06-14T03:12:36;15.80;60.70
49413;DHT22;35493;50.276;9.372;2023-06-14T03:15:03;15.80;60.80
49413;DHT22;35493;50.276;9.372;2023-06-14T03:17:35;15.70;60.80
49413;DHT22;35493;50.276;9.372;2023-06-14T03:20:06;15.60;61.00
49413;DHT22;35493;50.276;9.372;2023-06-14T03:22:35;15.70;60.90
49413;DHT22;35493;50.276;9.372;2023-06-14T03:25:03;15.70;61.10
49413;DHT22;35493;50.276;9.372;2023-06-14T03:27:33;15.60;61.30
49413;DHT22;35493;50.276;9.372;2023-06-14T03:30:01;15.60;61.30
49413;DHT22;35493;50.276;9.372;2023-06-14T03:32:30;15.60;61.30
49413;DHT22;35493;50.276;9.372;2023-06-14T03:34:59;15.60;61.30
49413;DHT22;35493;50.276;9.372;2023-06-14T03:37:26;15.50;61.40
49413;DHT22;35493;50.276;9.372;2023-06-14T03:39:54;15.50;61.40
49413;DHT22;35493;50.276;9.372;2023-06-14T03:42:23;15.60;61.30
49413;DHT22;35493;50.276;9.372;2023-06-14T03:44:50;15.50;61.30
49413;DHT22;35493;50.276;9.372;2023-06-14T03:47:20;15.60;61.50
49413;DHT22;35493;50.276;9.372;2023-06-14T03:49:47;15.50;61.60
49413;DHT22;35493;50.276;9.372;2023-06-14T03:52:14;15.40;61.80
49413;DHT22;35493;50.276;9.372;2023-06-14T03:54:44;15.50;61.90
49413;DHT22;35493;50.276;9.372;2023-06-14T03:57:15;15.50;62.20
49413;DHT22;35493;50.276;9.372;2023-06-14T03:59:43;15.50;62.30
49413;DHT22;35493;50.276;9.372;2023-06-14T04:02:10;15.50;62.40
49413;DHT22;35493;50.276;9.372;2023-06-14T04:04:40;15.50;62.50
49413;DHT22;35493;50.276;9.372;2023-06-14T04:07:10;15.60;62.60
49413;DHT22;35493;50.276;9.372;2023-06-14T04:09:37;15.60;62.30
49413;DHT22;35493;50.276;9.372;2023-06-14T04:12:05;15.60;62.50
49413;DHT22;35493;50.276;9.372;2023-06-14T04:14:35;15.60;62.30
49413;DHT22;35493;50.276;9.372;2023-06-14T04:17:02;15.60;62.30
49413;DHT22;35493;50.276;9.372;2023-06-14T04:19:30;15.60;62.60
49413;DHT22;35493;50.276;9.372;2023-06-14T04:21:58;15.70;62.60
49413;DHT22;35493;50.276;9.372;2023-06-14T04:24:26;15.60;62.70
49413;DHT22;35493;50.276;9.372;2023-06-14T04:26:58;15.60;62.70
49413;DHT22;35493;50.276;9.372;2023-06-14T04:29:27;15.70;62.50
49413;DHT22;35493;50.276;9.372;2023-06-14T04:32:01;15.70;62.40
49413;DHT22;35493;50.276;9.372;2023-06-14T04:34:28;15.70;62.60
49413;DHT22;35493;50.276;9.372;2023-06-14T04:36:57;15.70;62.60
49413;DHT22;35493;50.276;9.372;2023-06-14T04:39:36;15.70;62.70
49413;DHT22;35493;50.276;9.372;2023-06-14T04:42:04;15.80;62.30
49413;DHT22;35493;50.276;9.372;2023-06-14T04:44:33;15.90;61.50
49413;DHT22;35493;50.276;9.372;2023-06-14T04:47:04;16.00;61.10
49413;DHT22;35493;50.276;9.372;2023-06-14T04:49:32;16.10;60.90
49413;DHT22;35493;50.276;9.372;2023-06-14T04:51:59;16.10;61.00
49413;DHT22;35493;50.276;9.372;2023-06-14T04:54:39;16.10;60.90
49413;DHT22;35493;50.276;9.372;2023-06-14T04:57:08;16.10;60.60
49413;DHT22;35493;50.276;9.372;2023-06-14T04:59:40;16.20;60.90
49413;DHT22;35493;50.276;9.372;2023-06-14T05:02:11;16.20;61.30
49413;DHT22;35493;50.276;9.372;2023-06-14T05:04:38;16.20;61.80
49413;DHT22;35493;50.276;9.372;2023-06-14T05:07:06;16.20;61.90
49413;DHT22;35493;50.276;9.372;2023-06-14T05:09:34;16.20;62.30
49413;DHT22;35493;50.276;9.372;2023-06-14T05:12:04;16.30;62.00
49413;DHT22;35493;50.276;9.372;2023-06-14T05:14:33;16.30;61.80
49413;DHT22;35493;50.276;9.372;2023-06-14T05:17:00;16.30;62.10
49413;DHT22;35493;50.276;9.372;2023-06-14T05:19:29;16.30;61.80
49413;DHT22;35493;50.276;9.372;2023-06-14T05:21:56;16.40;61.50
49413;DHT22;35493;50.276;9.372;2023-06-14T05:24:23;16.40;61.30
49413;DHT22;35493;50.276;9.372;2023-06-14T05:26:51;16.40;61.30
49413;DHT22;35493;50.276;9.372;2023-06-14T05:29:17;16.40;61.60
49413;DHT22;35493;50.276;9.372;2023-06-14T05:31:44;16.50;61.60
49413;DHT22;35493;50.276;9.372;2023-06-14T05:34:11;16.60;61.30
49413;DHT22;35493;50.276;9.372;2023-06-14T05:36:39;16.60;61.00
49413;DHT22;35493;50.276;9.372;2023-06-14T05:39:06;16.60;60.80
49413;DHT22;35493;50.276;9.372;2023-06-14T05:41:34;16.60;60.30
49413;DHT22;35493;50.276;9.372;2023-06-14T05:44:01;16.60;60.20
49413;DHT22;35493;50.276;9.372;2023-06-14T05:46:28;16.60;60.20
49413;DHT22;35493;50.276;9.372;2023-06-14T05:48:55;16.60;60.00
49413;DHT22;35493;50.276;9.372;2023-06-14T05:51:23;16.60;59.50
49413;DHT22;35493;50.276;9.372;2023-06-14T05:53:52;16.70;59.50
49413;DHT22;35493;50.276;9.372;2023-06-14T05:56:20;16.70;59.60
49413;DHT22;35493;50.276;9.372;2023-06-14T05:58:47;16.70;59.30
49413;DHT22;35493;50.276;9.372;2023-06-14T06:01:14;16.80;59.30
49413;DHT22;35493;50.276;9.372;2023-06-14T06:03:41;16.80;58.90
49413;DHT22;35493;50.276;9.372;2023-06-14T06:06:11;16.80;59.20
49413;DHT22;35493;50.276;9.372;2023-06-14T06:08:38;16.90;59.10
49413;DHT22;35493;50.276;9.372;2023-06-14T06:11:07;16.90;59.20
49413;DHT22;35493;50.276;9.372;2023-06-14T06:13:34;16.90;59.10
49413;DHT22;35493;50.276;9.372;2023-06-14T06:16:01;16.90;59.00
49413;DHT22;35493;50.276;9.372;2023-06-14T06:18:28;17.10;59.10
49413;DHT22;35493;50.276;9.372;2023-06-14T06:20:55;17.10;58.80
49413;DHT22;35493;50.276;9.372;2023-06-14T06:23:22;17.20;58.60
49413;DHT22;35493;50.276;9.372;2023-06-14T06:25:49;17.20;58.50
49413;DHT22;35493;50.276;9.372;2023-06-14T06:28:17;17.30;58.40
49413;DHT22;35493;50.276;9.372;2023-06-14T06:30:44;17.40;58.40
49413;DHT22;35493;50.276;9.372;2023-06-14T06:33:11;17.60;58.10
49413;DHT22;35493;50.276;9.372;2023-06-14T06:35:39;17.70;57.70
49413;DHT22;35493;50.276;9.372;2023-06-14T06:38:06;17.80;57.40
49413;DHT22;35493;50.276;9.372;2023-06-14T06:40:34;18.00;57.00
49413;DHT22;35493;50.276;9.372;2023-06-14T06:43:01;18.20;56.70
49413;DHT22;35493;50.276;9.372;2023-06-14T06:45:30;18.30;56.50
49413;DHT22;35493;50.276;9.372;2023-06-14T06:47:57;18.40;56.00
49413;DHT22;35493;50.276;9.372;2023-06-14T06:50:24;18.50;56.00
49413;DHT22;35493;50.276;9.372;2023-06-14T06:52:51;18.70;55.90
49413;DHT22;35493;50.276;9.372;2023-06-14T06:55:18;18.90;55.50
49413;DHT22;35493;50.276;9.372;2023-06-14T06:57:45;19.00;55.00
49413;DHT22;35493;50.276;9.372;2023-06-14T07:00:13;19.20;54.40
49413;DHT22;35493;50.276;9.372;2023-06-14T07:02:41;19.30;54.20
49413;DHT22;35493;50.276;9.372;2023-06-14T07:05:08;19.50;53.90
49413;DHT22;35493;50.276;9.372;2023-06-14T07:07:35;19.60;53.50
49413;DHT22;35493;50.276;9.372;2023-06-14T07:10:03;19.80;53.40
49413;DHT22;35493;50.276;9.372;2023-06-14T07:12:30;20.00;53.00
49413;DHT22;35493;50.276;9.372;2023-06-14T07:14:59;20.10;52.80
49413;DHT22;35493;50.276;9.372;2023-06-14T07:17:28;20.20;52.50
49413;DHT22;35493;50.276;9.372;2023-06-14T07:19:56;20.40;52.20
49413;DHT22;35493;50.276;9.372;2023-06-14T07:22:23;20.60;51.60
49413;DHT22;35493;50.276;9.372;2023-06-14T07:24:50;20.70;51.30
49413;DHT22;35493;50.276;9.372;2023-06-14T07:27:19;20.70;51.70
49413;DHT22;35493;50.276;9.372;2023-06-14T07:29:46;20.90;51.20
49413;DHT22;35493;50.276;9.372;2023-06-14T07:32:13;21.00;51.40
49413;DHT22;35493;50.276;9.372;2023-06-14T07:34:40;21.10;50.90
49413;DHT22;35493;50.276;9.372;2023-06-14T07:37:08;21.30;50.90
49413;DHT22;35493;50.276;9.372;2023-06-14T07:39:35;21.30;50.50
49413;DHT22;35493;50.276;9.372;2023-06-14T07:42:02;21.60;50.20
49413;DHT22;35493;50.276;9.372;2023-06-14T07:44:29;21.60;49.50
49413;DHT22;35493;50.276;9.372;2023-06-14T07:46:57;21.60;49.90
49413;DHT22;35493;50.276;9.372;2023-06-14T07:49:25;21.80;49.60
49413;DHT22;35493;50.276;9.372;2023-06-14T07:51:52;22.00;48.90
49413;DHT22;35493;50.276;9.372;2023-06-14T07:54:20;22.10;48.70
49413;DHT22;35493;50.276;9.372;2023-06-14T07:56:50;22.20;48.60
49413;DHT22;35493;50.276;9.372;2023-06-14T07:59:17;22.40;48.00
49413;DHT22;35493;50.276;9.372;2023-06-14T08:01:44;22.50;47.40
49413;DHT22;35493;50.276;9.372;2023-06-14T08:04:13;22.60;47.30
49413;DHT22;35493;50.276;9.372;2023-06-14T08:06:41;22.70;47.30
49413;DHT22;35493;50.276;9.372;2023-06-14T08:09:10;22.80;46.90
49413;DHT22;35493;50.276;9.372;2023-06-14T08:11:38;23.00;46.40
49413;DHT22;35493;50.276;9.372;2023-06-14T08:14:05;23.10;46.00
49413;DHT22;35493;50.276;9.372;2023-06-14T08:16:32;23.30;45.80
49413;DHT22;35493;50.276;9.372;2023-06-14T08:18:59;23.30;45.40
49413;DHT22;35493;50.276;9.372;2023-06-14T08:21:26;23.20;45.50
49413;DHT22;35493;50.276;9.372;2023-06-14T08:23:54;23.30;45.30
49413;DHT22;35493;50.276;9.372;2023-06-14T08:26:21;23.50;44.80
49413;DHT22;35493;50.276;9.372;2023-06-14T08:28:50;23.70;44.60
49413;DHT22;35493;50.276;9.372;2023-06-14T08:31:17;23.70;44.10
49413;DHT22;35493;50.276;9.372;2023-06-14T08:33:44;23.60;43.80
49413;DHT22;35493;50.276;9.372;2023-06-14T08:36:11;23.50;44.20
49413;DHT22;35493;50.276;9.372;2023-06-14T08:38:38;23.10;44.10
49413;DHT22;35493;50.276;9.372;2023-06-14T08:41:06;22.80;44.20
49413;DHT22;35493;50.276;9.372;2023-06-14T08:43:33;22.50;44.40
49413;DHT22;35493;50.276;9.372;2023-06-14T08:46:03;22.60;43.80
49413;DHT22;35493;50.276;9.372;2023-06-14T08:48:30;22.90;43.50
49413;DHT22;35493;50.276;9.372;2023-06-14T08:51:00;23.30;43.20
49413;DHT22;35493;50.276;9.372;2023-06-14T08:53:30;23.60;42.70
49413;DHT22;35493;50.276;9.372;2023-06-14T08:55:59;23.90;42.80
49413;DHT22;35493;50.276;9.372;2023-06-14T08:58:27;24.20;42.20
49413;DHT22;35493;50.276;9.372;2023-06-14T09:00:57;24.20;42.50
49413;DHT22;35493;50.276;9.372;2023-06-14T09:03:26;23.90;42.20
49413;DHT22;35493;50.276;9.372;2023-06-14T09:05:58;23.70;41.70
49413;DHT22;35493;50.276;9.372;2023-06-14T09:08:27;23.60;42.00
49413;DHT22;35493;50.276;9.372;2023-06-14T09:10:56;23.40;42.60
49413;DHT22;35493;50.276;9.372;2023-06-14T09:13:23;23.30;42.40
49413;DHT22;35493;50.276;9.372;2023-06-14T09:15:50;23.50;42.00
49413;DHT22;35493;50.276;9.372;2023-06-14T09:18:17;23.60;42.30
49413;DHT22;35493;50.276;9.372;2023-06-14T09:20:47;23.60;42.30
49413;DHT22;35493;50.276;9.372;2023-06-14T09:23:20;23.50;42.00
49413;DHT22;35493;50.276;9.372;2023-06-14T09:25:48;23.50;42.00
49413;DHT22;35493;50.276;9.372;2023-06-14T09:28:14;23.30;42.30
49413;DHT22;35493;50.276;9.372;2023-06-14T09:30:41;23.40;42.30
49413;DHT22;35493;50.276;9.372;2023-06-14T09:33:08;23.90;42.40
49413;DHT22;35493;50.276;9.372;2023-06-14T09:35:36;24.10;42.30
49413;DHT22;35493;50.276;9.372;2023-06-14T09:38:04;24.00;41.70
49413;DHT22;35493;50.276;9.372;2023-06-14T09:40:34;23.90;41.70
49413;DHT22;35493;50.276;9.372;2023-06-14T09:43:05;23.80;41.70
49413;DHT22;35493;50.276;9.372;2023-06-14T09:45:33;24.00;42.20
49413;DHT22;35493;50.276;9.372;2023-06-14T09:48:01;24.10;42.10
49413;DHT22;35493;50.276;9.372;2023-06-14T09:50:28;24.10;41.70
49413;DHT22;35493;50.276;9.372;2023-06-14T09:52:59;24.10;41.60
49413;DHT22;35493;50.276;9.372;2023-06-14T09:55:31;24.00;41.60
49413;DHT22;35493;50.276;9.372;2023-06-14T09:58:04;24.00;41.70
49413;DHT22;35493;50.276;9.372;2023-06-14T10:00:32;24.20;41.10
49413;DHT22;35493;50.276;9.372;2023-06-14T10:03:05;24.10;41.50
49413;DHT22;35493;50.276;9.372;2023-06-14T10:05:35;24.30;41.50
49413;DHT22;35493;50.276;9.372;2023-06-14T10:08:07;24.80;41.00
49413;DHT22;35493;50.276;9.372;2023-06-14T10:10:38;24.80;40.00
49413;DHT22;35493;50.276;9.372;2023-06-14T10:13:06;24.60;40.20
49413;DHT22;35493;50.276;9.372;2023-06-14T10:15:38;24.50;40.30
49413;DHT22;35493;50.276;9.372;2023-06-14T10:18:14;24.80;40.40
49413;DHT22;35493;50.276;9.372;2023-06-14T10:20:53;24.90;40.10
49413;DHT22;35493;50.276;9.372;2023-06-14T10:23:23;24.90;39.70
49413;DHT22;35493;50.276;9.372;2023-06-14T10:25:55;24.80;39.50
49413;DHT22;35493;50.276;9.372;2023-06-14T10:28:23;24.90;39.70
49413;DHT22;35493;50.276;9.372;2023-06-14T10:31:04;25.20;39.60
49413;DHT22;35493;50.276;9.372;2023-06-14T10:33:31;25.50;39.60
49413;DHT22;35493;50.276;9.372;2023-06-14T10:38:57;25.90;39.50
49413;DHT22;35493;50.276;9.372;2023-06-14T10:41:26;26.00;39.10
49413;DHT22;35493;50.276;9.372;2023-06-14T10:46:52;25.50;38.70
49413;DHT22;35493;50.276;9.372;2023-06-14T10:49:22;25.50;38.20
49413;DHT22;35493;50.276;9.372;2023-06-14T10:52:05;25.60;38.10
49413;DHT22;35493;50.276;9.372;2023-06-14T10:54:32;26.00;38.30
49413;DHT22;35493;50.276;9.372;2023-06-14T10:57:00;26.20;38.20
49413;DHT22;35493;50.276;9.372;2023-06-14T10:59:27;26.30;37.50
49413;DHT22;35493;50.276;9.372;2023-06-14T11:02:00;26.10;37.60
49413;DHT22;35493;50.276;9.372;2023-06-14T11:04:47;26.00;36.90
49413;DHT22;35493;50.276;9.372;2023-06-14T11:07:35;25.80;36.90
49413;DHT22;35493;50.276;9.372;2023-06-14T11:10:17;25.70;37.20
49413;DHT22;35493;50.276;9.372;2023-06-14T11:12:51;25.70;37.40
49413;DHT22;35493;50.276;9.372;2023-06-14T11:15:20;25.60;37.40
49413;DHT22;35493;50.276;9.372;2023-06-14T11:17:50;25.70;37.10
49413;DHT22;35493;50.276;9.372;2023-06-14T11:20:19;25.80;37.10
49413;DHT22;35493;50.276;9.372;2023-06-14T11:22:46;26.00;36.60
49413;DHT22;35493;50.276;9.372;2023-06-14T11:25:14;25.90;35.80
49413;DHT22;35493;50.276;9.372;2023-06-14T11:27:42;26.00;35.80
49413;DHT22;35493;50.276;9.372;2023-06-14T11:30:11;26.00;35.90
49413;DHT22;35493;50.276;9.372;2023-06-14T11:32:38;25.90;36.20
49413;DHT22;35493;50.276;9.372;2023-06-14T11:35:07;25.80;35.70
49413;DHT22;35493;50.276;9.372;2023-06-14T11:37:36;25.60;35.70
49413;DHT22;35493;50.276;9.372;2023-06-14T11:40:05;25.60;35.80
49413;DHT22;35493;50.276;9.372;2023-06-14T11:42:35;25.90;35.70
49413;DHT22;35493;50.276;9.372;2023-06-14T11:45:03;26.00;35.50
49413;DHT22;35493;50.276;9.372;2023-06-14T11:47:36;26.00;35.10
49413;DHT22;35493;50.276;9.372;2023-06-14T11:50:05;25.90;34.80
49413;DHT22;35493;50.276;9.372;2023-06-14T11:52:32;25.80;35.60
49413;DHT22;35493;50.276;9.372;2023-06-14T11:54:59;25.80;35.50
49413;DHT22;35493;50.276;9.372;2023-06-14T11:57:30;26.00;35.40
49413;DHT22;35493;50.276;9.372;2023-06-14T11:59:57;26.00;34.80
49413;DHT22;35493;50.276;9.372;2023-06-14T12:02:24;26.10;35.10
49413;DHT22;35493;50.276;9.372;2023-06-14T12:04:54;26.10;35.50
49413;DHT22;35493;50.276;9.372;2023-06-14T12:07:22;26.00;35.40
49413;DHT22;35493;50.276;9.372;2023-06-14T12:10:07;26.00;35.10
49413;DHT22;35493;50.276;9.372;2023-06-14T12:12:37;26.00;35.60
49413;DHT22;35493;50.276;9.372;2023-06-14T12:15:05;25.90;36.00
49413;DHT22;35493;50.276;9.372;2023-06-14T12:17:33;25.90;36.10
49413;DHT22;35493;50.276;9.372;2023-06-14T12:20:07;26.00;36.80
49413;DHT22;35493;50.276;9.372;2023-06-14T12:22:36;25.80;37.80
49413;DHT22;35493;50.276;9.372;2023-06-14T12:25:04;25.70;37.70
49413;DHT22;35493;50.276;9.372;2023-06-14T12:27:31;25.60;37.80
49413;DHT22;35493;50.276;9.372;2023-06-14T12:29:59;25.50;38.00
49413;DHT22;35493;50.276;9.372;2023-06-14T12:32:28;25.40;38.40
49413;DHT22;35493;50.276;9.372;2023-06-14T12:34:56;25.30;38.50
49413;DHT22;35493;50.276;9.372;2023-06-14T12:37:24;25.30;38.30
49413;DHT22;35493;50.276;9.372;2023-06-14T12:39:50;25.30;38.00
49413;DHT22;35493;50.276;9.372;2023-06-14T12:42:17;25.40;37.90
49413;DHT22;35493;50.276;9.372;2023-06-14T12:44:44;25.50;38.10
49413;DHT22;35493;50.276;9.372;2023-06-14T12:47:11;25.80;38.00
49413;DHT22;35493;50.276;9.372;2023-06-14T12:49:39;25.90;37.80
49413;DHT22;35493;50.276;9.372;2023-06-14T12:52:08;26.10;37.50
49413;DHT22;35493;50.276;9.372;2023-06-14T12:54:36;26.20;37.70
49413;DHT22;35493;50.276;9.372;2023-06-14T12:57:05;26.30;37.30
49413;DHT22;35493;50.276;9.372;2023-06-14T12:59:32;26.20;37.80
49413;DHT22;35493;50.276;9.372;2023-06-14T13:02:10;26.10;37.40
49413;DHT22;35493;50.276;9.372;2023-06-14T13:04:37;26.00;37.00
49413;DHT22;35493;50.276;9.372;2023-06-14T13:07:05;25.90;37.00
49413;DHT22;35493;50.276;9.372;2023-06-14T13:09:32;25.80;37.30
49413;DHT22;35493;50.276;9.372;2023-06-14T13:12:00;25.80;37.50
49413;DHT22;35493;50.276;9.372;2023-06-14T13:14:27;25.90;37.30
49413;DHT22;35493;50.276;9.372;2023-06-14T13:16:54;26.10;37.20
49413;DHT22;35493;50.276;9.372;2023-06-14T13:19:21;26.20;36.90
49413;DHT22;35493;50.276;9.372;2023-06-14T13:21:49;26.10;36.80
49413;DHT22;35493;50.276;9.372;2023-06-14T13:24:16;26.00;37.10
49413;DHT22;35493;50.276;9.372;2023-06-14T13:26:43;25.90;37.40
49413;DHT22;35493;50.276;9.372;2023-06-14T13:29:11;25.70;37.90
49413;DHT22;35493;50.276;9.372;2023-06-14T13:31:38;25.60;37.60
49413;DHT22;35493;50.276;9.372;2023-06-14T13:34:05;25.60;37.90
49413;DHT22;35493;50.276;9.372;2023-06-14T13:36:32;25.80;37.70
49413;DHT22;35493;50.276;9.372;2023-06-14T13:38:59;26.10;36.90
49413;DHT22;35493;50.276;9.372;2023-06-14T13:41:28;26.20;37.30
49413;DHT22;35493;50.276;9.372;2023-06-14T13:43:57;26.30;37.00
49413;DHT22;35493;50.276;9.372;2023-06-14T13:46:26;26.20;36.80
49413;DHT22;35493;50.276;9.372;2023-06-14T13:48:53;26.00;37.20
49413;DHT22;35493;50.276;9.372;2023-06-14T13:51:20;25.90;36.40
49413;DHT22;35493;50.276;9.372;2023-06-14T13:53:48;25.80;37.00
49413;DHT22;35493;50.276;9.372;2023-06-14T13:56:16;25.70;37.60
49413;DHT22;35493;50.276;9.372;2023-06-14T13:58:44;25.60;37.80
49413;DHT22;35493;50.276;9.372;2023-06-14T14:01:11;25.50;37.60
49413;DHT22;35493;50.276;9.372;2023-06-14T14:03:39;25.50;37.20
49413;DHT22;35493;50.276;9.372;2023-06-14T14:06:06;25.60;37.50
49413;DHT22;35493;50.276;9.372;2023-06-14T14:08:34;25.60;37.00
49413;DHT22;35493;50.276;9.372;2023-06-14T14:11:01;25.60;37.30
49413;DHT22;35493;50.276;9.372;2023-06-14T14:13:28;25.60;37.40
49413;DHT22;35493;50.276;9.372;2023-06-14T14:15:56;25.60;37.50
49413;DHT22;35493;50.276;9.372;2023-06-14T14:18:23;25.50;36.90
49413;DHT22;35493;50.276;9.372;2023-06-14T14:20:51;25.50;37.00
49413;DHT22;35493;50.276;9.372;2023-06-14T14:23:18;25.40;37.10
49413;DHT22;35493;50.276;9.372;2023-06-14T14:25:45;25.50;37.40
49413;DHT22;35493;50.276;9.372;2023-06-14T14:28:12;25.40;37.80
49413;DHT22;35493;50.276;9.372;2023-06-14T14:30:41;25.50;37.50
49413;DHT22;35493;50.276;9.372;2023-06-14T14:33:08;25.60;37.50
49413;DHT22;35493;50.276;9.372;2023-06-14T14:35:41;25.70;37.40
49413;DHT22;35493;50.276;9.372;2023-06-14T14:38:09;25.90;37.50
49413;DHT22;35493;50.276;9.372;2023-06-14T14:40:36;25.90;36.90
49413;DHT22;35493;50.276;9.372;2023-06-14T14:43:03;25.90;37.10
49413;DHT22;35493;50.276;9.372;2023-06-14T14:45:30;25.80;37.60
49413;DHT22;35493;50.276;9.372;2023-06-14T14:47:58;25.70;37.60
49413;DHT22;35493;50.276;9.372;2023-06-14T14:50:25;25.60;37.90
49413;DHT22;35493;50.276;9.372;2023-06-14T14:52:52;25.50;38.10
49413;DHT22;35493;50.276;9.372;2023-06-14T14:55:20;25.40;37.90
49413;DHT22;35493;50.276;9.372;2023-06-14T14:57:47;25.30;38.10
49413;DHT22;35493;50.276;9.372;2023-06-14T15:00:16;25.30;38.30
49413;DHT22;35493;50.276;9.372;2023-06-14T15:02:43;25.20;38.70
49413;DHT22;35493;50.276;9.372;2023-06-14T15:05:10;25.20;38.70
49413;DHT22;35493;50.276;9.372;2023-06-14T15:07:37;25.20;38.70
49413;DHT22;35493;50.276;9.372;2023-06-14T15:10:07;25.20;38.60
49413;DHT22;35493;50.276;9.372;2023-06-14T15:12:35;25.20;38.60
49413;DHT22;35493;50.276;9.372;2023-06-14T15:15:03;25.30;38.70
49413;DHT22;35493;50.276;9.372;2023-06-14T15:17:30;25.40;38.70
49413;DHT22;35493;50.276;9.372;2023-06-14T15:19:57;25.50;38.90
49413;DHT22;35493;50.276;9.372;2023-06-14T15:22:24;25.60;38.70
49413;DHT22;35493;50.276;9.372;2023-06-14T15:24:51;25.70;37.60
49413;DHT22;35493;50.276;9.372;2023-06-14T15:27:18;25.80;36.90
49413;DHT22;35493;50.276;9.372;2023-06-14T15:29:46;25.90;37.40
49413;DHT22;35493;50.276;9.372;2023-06-14T15:32:13;26.00;36.10
49413;DHT22;35493;50.276;9.372;2023-06-14T15:34:40;26.00;36.70
49413;DHT22;35493;50.276;9.372;2023-06-14T15:37:07;26.10;36.40
49413;DHT22;35493;50.276;9.372;2023-06-14T15:39:34;26.00;36.00
49413;DHT22;35493;50.276;9.372;2023-06-14T15:42:04;26.00;36.50
49413;DHT22;35493;50.276;9.372;2023-06-14T15:44:32;25.80;36.80